createdAt,value
2022-10-06T05:49:58.489Z,5.78
2022-10-06T05:52:35.979Z,8.43
2022-10-06T05:55:13.621Z,6.90
2022-10-06T05:57:50.947Z,9.65
2022-10-06T06:00:27.933Z,5.53
2022-10-06T06:03:05.914Z,6.00
2022-10-06T06:05:47.631Z,6.25
2022-10-06T06:08:25.346Z,6.53
2022-10-06T06:11:10.780Z,6.82
2022-10-06T06:13:47.921Z,7.20
2022-10-06T06:16:22.083Z,6.15
2022-10-06T06:18:59.439Z,5.20
2022-10-06T06:21:39.090Z,5.80
2022-10-06T06:24:16.999Z,7.82
2022-10-06T06:26:53.773Z,5.88
2022-10-06T06:29:31.037Z,7.85
2022-10-06T06:32:09.950Z,5.45
2022-10-06T06:34:47.509Z,5.03
2022-10-06T06:37:27.090Z,4.85
2022-10-06T06:40:04.958Z,4.03
2022-10-06T06:42:48.260Z,6.57
2022-10-06T06:45:28.810Z,3.75
2022-10-06T06:48:16.709Z,5.22
2022-10-06T06:53:43.859Z,6.63
2022-10-06T06:56:21.599Z,7.63
2022-10-06T06:58:59.010Z,4.50
2022-10-06T07:01:37.235Z,8.85
2022-10-06T07:04:15.859Z,9.20
2022-10-06T07:06:58.764Z,4.85
2022-10-06T07:09:43.610Z,5.80
2022-10-06T07:12:22.919Z,4.22
2022-10-06T07:15:16.590Z,4.93
2022-10-06T07:18:09.229Z,6.30
2022-10-06T07:20:58.819Z,6.10
2022-10-06T07:24:03.459Z,4.43
2022-10-06T07:26:43.200Z,4.10
2022-10-06T07:29:20.547Z,6.72
2022-10-06T07:31:58.380Z,3.75
2022-10-06T07:34:36.956Z,5.45
2022-10-06T07:37:13.865Z,7.20
2022-10-06T07:39:52.509Z,9.52
2022-10-06T07:42:48.181Z,3.97
2022-10-06T07:45:42.805Z,6.65
2022-10-06T07:48:26.579Z,6.65
2022-10-06T07:51:16.771Z,4.03
2022-10-06T07:53:54.259Z,4.07
2022-10-06T07:56:51.442Z,3.95
2022-10-06T07:59:30.909Z,6.13
2022-10-06T08:02:08.106Z,4.88
2022-10-06T08:04:45.113Z,5.32
2022-10-06T08:07:22.325Z,2.85
2022-10-06T08:09:59.157Z,4.13
2022-10-06T08:12:38.106Z,5.07
2022-10-06T08:15:18.729Z,2.40
2022-10-06T08:17:57.290Z,4.30
2022-10-06T08:20:34.309Z,2.25
2022-10-06T08:23:12.700Z,2.05
2022-10-06T08:25:56.700Z,2.95
2022-10-06T08:28:33.885Z,3.42
2022-10-06T08:31:15.992Z,3.80
2022-10-06T08:33:57.381Z,5.05
2022-10-06T08:36:34.261Z,9.60
2022-10-06T08:39:11.490Z,7.25
2022-10-06T08:41:55.130Z,4.20
2022-10-06T08:44:43.049Z,2.70
2022-10-06T08:47:25.992Z,8.93
2022-10-06T08:50:04.368Z,4.43
2022-10-06T08:52:55.384Z,7.78
2022-10-06T08:55:42.275Z,3.88
2022-10-06T08:58:38.135Z,2.72
2022-10-06T09:01:23.879Z,3.55
2022-10-06T09:04:08.800Z,3.80
2022-10-06T09:06:55.503Z,4.07
2022-10-06T09:10:06.534Z,3.15
2022-10-06T09:12:49.833Z,3.03
2022-10-06T09:15:37.074Z,6.07
2022-10-06T09:18:22.722Z,3.80
2022-10-06T09:21:06.497Z,4.57
2022-10-06T09:23:53.701Z,2.55
2022-10-06T09:26:37.936Z,3.25
2022-10-06T09:29:15.394Z,3.50
2022-10-06T09:31:53.209Z,3.72
2022-10-06T09:34:46.041Z,2.85
2022-10-06T09:37:26.483Z,4.15
2022-10-06T09:40:44.831Z,5.20
2022-10-06T09:43:30.451Z,6.43
2022-10-06T09:46:24.548Z,5.95
2022-10-06T09:49:20.920Z,6.35
2022-10-06T09:52:18.090Z,6.63
2022-10-06T09:55:13.480Z,2.78
2022-10-06T09:58:01.676Z,4.32
2022-10-06T10:00:45.384Z,4.95
2022-10-06T10:03:23.846Z,5.07
2022-10-06T10:06:11.881Z,3.47
2022-10-06T10:08:49.117Z,5.57
2022-10-06T10:11:44.637Z,2.70
2022-10-06T10:14:29.043Z,5.10
2022-10-06T10:17:19.467Z,5.68
2022-10-06T10:19:58.488Z,4.85
2022-10-06T10:22:40.434Z,6.57
2022-10-06T10:25:44.835Z,6.13
2022-10-06T10:28:52.006Z,7.13
2022-10-06T10:31:42.000Z,5.00
2022-10-06T10:34:39.874Z,5.45
2022-10-06T10:37:20.525Z,6.90
2022-10-06T10:40:03.716Z,4.88
2022-10-06T10:42:48.348Z,4.78
2022-10-06T10:45:35.731Z,7.13
2022-10-06T10:48:23.619Z,7.10
2022-10-06T10:51:09.576Z,6.65
2022-10-06T10:53:54.041Z,7.18
2022-10-06T10:56:33.095Z,4.10
2022-10-06T10:59:21.218Z,4.72
2022-10-06T11:02:05.939Z,6.15
2022-10-06T11:04:50.462Z,3.83
2022-10-06T11:07:35.957Z,5.88
2022-10-06T11:10:20.748Z,5.78
2022-10-06T11:13:17.274Z,3.42
2022-10-06T11:16:16.550Z,5.78
2022-10-06T11:19:18.474Z,8.05
2022-10-06T11:22:05.314Z,7.57
2022-10-06T11:24:51.462Z,6.90
2022-10-06T11:27:46.650Z,6.95
2022-10-06T11:30:27.049Z,5.50
2022-10-06T11:33:14.798Z,6.10
2022-10-06T11:35:54.574Z,5.45
2022-10-06T11:38:40.603Z,7.18
2022-10-06T11:41:27.444Z,4.38
2022-10-06T11:44:14.337Z,6.72
2022-10-06T11:47:00.030Z,6.85
2022-10-06T11:49:53.286Z,7.07
2022-10-06T11:53:00.127Z,4.53
2022-10-06T11:55:37.566Z,5.20
2022-10-06T11:58:41.472Z,8.75
2022-10-06T12:01:56.884Z,6.90
2022-10-06T12:04:36.027Z,7.95
2022-10-06T12:07:14.892Z,5.78
2022-10-06T12:09:55.964Z,5.78
2022-10-06T12:13:07.982Z,4.82
2022-10-06T12:19:25.701Z,7.35
2022-10-06T12:22:14.119Z,6.22
2022-10-06T12:25:07.303Z,7.72
2022-10-06T12:28:07.672Z,6.53
2022-10-06T12:31:18.247Z,10.38
2022-10-06T12:33:57.531Z,8.50
2022-10-06T12:36:36.632Z,8.43
2022-10-06T12:39:28.175Z,12.25
2022-10-06T12:42:20.620Z,9.20
2022-10-06T12:44:57.821Z,5.30
2022-10-06T12:47:44.565Z,4.40
2022-10-06T12:50:28.565Z,4.70
2022-10-06T12:53:09.603Z,4.20
2022-10-06T12:55:51.365Z,8.30
2022-10-06T12:58:37.477Z,4.78
2022-10-06T13:01:18.179Z,4.28
2022-10-06T13:03:57.194Z,5.35
2022-10-06T13:06:38.321Z,3.95
2022-10-06T13:09:20.572Z,5.68
2022-10-06T13:11:59.100Z,6.18
2022-10-06T13:14:43.301Z,3.67
2022-10-06T13:17:24.142Z,4.22
2022-10-06T13:20:07.144Z,8.55
2022-10-06T13:22:45.998Z,4.00
2022-10-06T13:25:25.663Z,4.03
2022-10-06T13:28:05.670Z,3.53
2022-10-06T13:30:57.109Z,4.97
2022-10-06T13:33:42.091Z,4.72
2022-10-06T13:36:24.101Z,8.43
2022-10-06T13:39:01.863Z,5.25
2022-10-06T13:41:45.982Z,7.20
2022-10-06T13:44:36.502Z,6.55
2022-10-06T13:47:25.090Z,3.63
2022-10-06T13:50:08.686Z,10.13
2022-10-06T13:52:51.032Z,6.95
2022-10-06T13:55:31.684Z,7.72
2022-10-06T13:58:21.163Z,7.97
2022-10-06T14:01:01.299Z,7.68
2022-10-06T14:03:41.571Z,8.20
2022-10-06T14:06:22.623Z,5.05
2022-10-06T14:09:02.542Z,6.70
2022-10-06T14:11:41.266Z,6.60
2022-10-06T14:14:21.951Z,6.32
2022-10-06T14:16:59.124Z,7.55
2022-10-06T14:19:42.203Z,6.30
2022-10-06T14:22:35.672Z,10.80
2022-10-06T14:25:16.683Z,5.68
2022-10-06T14:27:53.527Z,6.10
2022-10-06T14:30:31.082Z,8.85
2022-10-06T14:33:08.227Z,6.32
2022-10-06T14:35:48.483Z,10.88
2022-10-06T14:38:25.664Z,6.15
2022-10-06T14:41:06.782Z,6.57
2022-10-06T14:43:43.924Z,8.05
2022-10-06T14:46:21.503Z,6.72
2022-10-06T14:48:59.103Z,9.32
2022-10-06T14:51:40.204Z,5.60
2022-10-06T14:54:17.085Z,9.27
2022-10-06T14:56:55.351Z,9.73
2022-10-06T14:59:32.369Z,5.60
2022-10-06T15:02:10.582Z,9.93
2022-10-06T15:04:47.823Z,4.88
2022-10-06T15:07:39.988Z,6.82
2022-10-06T15:10:17.051Z,9.63
2022-10-06T15:12:54.284Z,10.18
2022-10-06T15:15:34.103Z,4.63
2022-10-06T15:18:11.623Z,6.90
2022-10-06T15:20:51.772Z,7.90
2022-10-06T15:23:31.606Z,9.77
2022-10-06T15:26:21.623Z,7.55
2022-10-06T15:29:07.110Z,8.07
2022-10-06T15:31:46.745Z,6.75
2022-10-06T15:34:27.383Z,9.27
2022-10-06T15:37:05.103Z,10.23
2022-10-06T15:39:46.967Z,7.07
2022-10-06T15:42:25.524Z,7.80
2022-10-06T15:45:07.175Z,9.25
2022-10-06T15:47:44.664Z,6.80
2022-10-06T15:50:22.226Z,10.05
2022-10-06T15:52:59.796Z,12.73
2022-10-06T15:55:41.146Z,12.98
2022-10-06T15:58:18.024Z,9.90
2022-10-06T16:00:56.835Z,6.80
2022-10-06T16:03:41.240Z,10.30
2022-10-06T16:06:21.044Z,7.80
2022-10-06T16:08:57.997Z,11.93
2022-10-06T16:11:38.119Z,9.20
2022-10-06T16:14:15.383Z,9.32
2022-10-06T16:16:53.022Z,6.63
2022-10-06T16:19:31.671Z,10.10
2022-10-06T16:22:12.174Z,8.43
2022-10-06T16:24:56.788Z,7.43
2022-10-06T16:27:40.085Z,8.18
2022-10-06T16:30:19.824Z,8.75
2022-10-06T16:32:57.131Z,7.72
2022-10-06T16:35:34.845Z,9.88
2022-10-06T16:38:13.828Z,6.70
2022-10-06T16:40:59.548Z,8.05
2022-10-06T16:43:42.148Z,9.10
2022-10-06T16:46:23.011Z,9.38
2022-10-06T16:49:05.076Z,7.43
2022-10-06T16:51:46.555Z,11.23
2022-10-06T16:54:24.336Z,10.25
2022-10-06T16:57:07.013Z,8.18
2022-10-06T16:59:47.812Z,12.52
2022-10-06T17:02:25.143Z,12.68
2022-10-06T17:05:03.182Z,19.05
2022-10-06T17:07:40.008Z,11.90
2022-10-06T17:10:20.452Z,11.52
2022-10-06T17:12:58.171Z,9.88
2022-10-06T17:15:38.016Z,13.07
2022-10-06T17:18:14.998Z,12.40
2022-10-06T17:20:58.889Z,10.27
2022-10-06T17:23:36.122Z,13.90
2022-10-06T17:26:18.508Z,17.38
2022-10-06T17:28:59.199Z,11.85
2022-10-06T17:31:41.768Z,22.55
2022-10-06T17:34:24.405Z,16.80
2022-10-06T17:37:04.878Z,9.25
2022-10-06T17:39:46.828Z,9.52
2022-10-06T17:42:24.547Z,13.95
2022-10-06T17:45:02.469Z,11.43
2022-10-06T17:47:42.446Z,12.40
